sensor_id;sensor_type;location;lat;lon;timestamp;pressure;altitude;pressure_sealevel;temperature;humidity
34674;BME280;20879;55.668;37.858;2022-11-20T00:00:26;99837.03;;;-3.56;100.00
34674;BME280;20879;55.668;37.858;2022-11-20T00:02:55;99832.22;;;-3.69;100.00
34674;BME280;20879;55.668;37.858;2022-11-20T00:05:32;99829.97;;;-3.82;100.00
34674;BME280;20879;55.668;37.858;2022-11-20T00:08:03;99830.91;;;-3.80;100.00
34674;BME280;20879;55.668;37.858;2022-11-20T00:10:32;99822.56;;;-3.78;100.00
34674;BME280;20879;55.668;37.858;2022-11-20T00:13:09;99769.31;;;-4.38;100.00
34674;BME280;20879;55.668;37.858;2022-11-20T00:15:45;99818.53;;;-3.94;100.00
34674;BME280;20879;55.668;37.858;2022-11-20T00:18:14;99838.59;;;-3.97;100.00
34674;BME280;20879;55.668;37.858;2022-11-20T00:20:44;99809.31;;;-4.11;100.00
34674;BME280;20879;55.668;37.858;2022-11-20T00:23:15;99834.75;;;-3.89;100.00
34674;BME280;20879;55.668;37.858;2022-11-20T00:25:44;99845.66;;;-3.90;100.00
34674;BME280;20879;55.668;37.858;2022-11-20T00:28:13;99832.94;;;-3.91;100.00
34674;BME280;20879;55.668;37.858;2022-11-20T00:30:42;99842.22;;;-3.92;100.00
34674;BME280;20879;55.668;37.858;2022-11-20T00:33:12;99812.44;;;-3.97;100.00
34674;BME280;20879;55.668;37.858;2022-11-20T00:35:46;99825.16;;;-3.96;100.00
34674;BME280;20879;55.668;37.858;2022-11-20T00:38:22;99818.22;;;-4.00;100.00
34674;BME280;20879;55.668;37.858;2022-11-20T00:40:55;99836.00;;;-3.98;100.00
34674;BME280;20879;55.668;37.858;2022-11-20T00:43:25;99834.28;;;-3.99;100.00
34674;BME280;20879;55.668;37.858;2022-11-20T00:46:00;99840.91;;;-4.01;100.00
34674;BME280;20879;55.668;37.858;2022-11-20T00:48:30;99822.94;;;-4.08;100.00
34674;BME280;20879;55.668;37.858;2022-11-20T00:50:59;99841.88;;;-3.99;100.00
34674;BME280;20879;55.668;37.858;2022-11-20T00:53:35;99841.94;;;-3.98;100.00
34674;BME280;20879;55.668;37.858;2022-11-20T00:56:07;99839.34;;;-3.99;100.00
34674;BME280;20879;55.668;37.858;2022-11-20T00:58:37;99844.41;;;-3.99;100.00
34674;BME280;20879;55.668;37.858;2022-11-20T01:01:14;99829.09;;;-4.02;100.00
34674;BME280;20879;55.668;37.858;2022-11-20T01:03:44;99839.94;;;-4.05;100.00
34674;BME280;20879;55.668;37.858;2022-11-20T01:06:21;99830.59;;;-4.06;100.00
34674;BME280;20879;55.668;37.858;2022-11-20T01:08:59;99825.53;;;-4.06;100.00
34674;BME280;20879;55.668;37.858;2022-11-20T01:11:30;99841.38;;;-4.10;100.00
34674;BME280;20879;55.668;37.858;2022-11-20T01:14:01;99835.66;;;-4.06;100.00
34674;BME280;20879;55.668;37.858;2022-11-20T01:16:38;99813.75;;;-4.06;100.00
34674;BME280;20879;55.668;37.858;2022-11-20T01:19:11;99832.28;;;-4.07;100.00
34674;BME280;20879;55.668;37.858;2022-11-20T01:21:45;99824.63;;;-4.08;100.00
34674;BME280;20879;55.668;37.858;2022-11-20T01:24:19;99815.09;;;-4.14;100.00
34674;BME280;20879;55.668;37.858;2022-11-20T01:26:49;99817.09;;;-4.07;100.00
34674;BME280;20879;55.668;37.858;2022-11-20T01:29:24;99822.66;;;-4.14;100.00
34674;BME280;20879;55.668;37.858;2022-11-20T01:31:58;99838.69;;;-4.13;100.00
34674;BME280;20879;55.668;37.858;2022-11-20T01:34:28;99813.41;;;-4.13;100.00
34674;BME280;20879;55.668;37.858;2022-11-20T01:37:02;99843.03;;;-4.11;100.00
34674;BME280;20879;55.668;37.858;2022-11-20T01:39:33;99843.97;;;-4.09;100.00
34674;BME280;20879;55.668;37.858;2022-11-20T01:42:03;99824.25;;;-4.16;100.00
34674;BME280;20879;55.668;37.858;2022-11-20T01:44:53;99854.00;;;-4.10;100.00
34674;BME280;20879;55.668;37.858;2022-11-20T01:47:27;99855.75;;;-4.09;100.00
34674;BME280;20879;55.668;37.858;2022-11-20T01:50:03;99846.28;;;-4.13;100.00
34674;BME280;20879;55.668;37.858;2022-11-20T01:52:37;99810.41;;;-4.24;100.00
34674;BME280;20879;55.668;37.858;2022-11-20T01:55:14;99849.59;;;-4.14;100.00
34674;BME280;20879;55.668;37.858;2022-11-20T01:57:45;99859.59;;;-4.17;100.00
34674;BME280;20879;55.668;37.858;2022-11-20T02:00:23;99854.38;;;-4.21;100.00
34674;BME280;20879;55.668;37.858;2022-11-20T02:02:56;99860.34;;;-4.20;100.00
34674;BME280;20879;55.668;37.858;2022-11-20T02:05:30;99848.00;;;-4.32;100.00
34674;BME280;20879;55.668;37.858;2022-11-20T02:08:02;99846.53;;;-4.27;100.00
34674;BME280;20879;55.668;37.858;2022-11-20T02:10:35;99863.44;;;-4.26;100.00
34674;BME280;20879;55.668;37.858;2022-11-20T02:13:04;99869.41;;;-4.24;100.00
34674;BME280;20879;55.668;37.858;2022-11-20T02:15:47;99848.03;;;-4.48;100.00
34674;BME280;20879;55.668;37.858;2022-11-20T02:18:19;99878.47;;;-4.29;100.00
34674;BME280;20879;55.668;37.858;2022-11-20T02:20:48;99871.81;;;-4.27;100.00
34674;BME280;20879;55.668;37.858;2022-11-20T02:23:24;99868.44;;;-4.27;100.00
34674;BME280;20879;55.668;37.858;2022-11-20T02:25:59;99886.91;;;-4.28;100.00
34674;BME280;20879;55.668;37.858;2022-11-20T02:28:39;99880.03;;;-4.31;100.00
34674;BME280;20879;55.668;37.858;2022-11-20T02:31:08;99892.81;;;-4.28;100.00
34674;BME280;20879;55.668;37.858;2022-11-20T02:33:37;99878.22;;;-4.33;100.00
34674;BME280;20879;55.668;37.858;2022-11-20T02:36:11;99879.91;;;-4.34;100.00
34674;BME280;20879;55.668;37.858;2022-11-20T02:38:41;99897.38;;;-4.21;100.00
34674;BME280;20879;55.668;37.858;2022-11-20T02:41:12;99892.25;;;-4.22;100.00
34674;BME280;20879;55.668;37.858;2022-11-20T02:43:41;99887.63;;;-4.31;100.00
34674;BME280;20879;55.668;37.858;2022-11-20T02:46:11;99896.31;;;-4.26;100.00
34674;BME280;20879;55.668;37.858;2022-11-20T02:48:40;99892.97;;;-4.25;100.00
34674;BME280;20879;55.668;37.858;2022-11-20T02:51:09;99912.63;;;-4.19;100.00
34674;BME280;20879;55.668;37.858;2022-11-20T02:53:38;99904.25;;;-4.18;100.00
34674;BME280;20879;55.668;37.858;2022-11-20T02:56:15;99916.81;;;-4.19;100.00
34674;BME280;20879;55.668;37.858;2022-11-20T02:58:44;99905.78;;;-4.22;100.00
34674;BME280;20879;55.668;37.858;2022-11-20T03:01:13;99866.69;;;-4.46;100.00
34674;BME280;20879;55.668;37.858;2022-11-20T03:03:43;99904.09;;;-4.21;100.00
34674;BME280;20879;55.668;37.858;2022-11-20T03:06:12;99900.78;;;-4.20;100.00
34674;BME280;20879;55.668;37.858;2022-11-20T03:08:42;99899.97;;;-4.19;100.00
34674;BME280;20879;55.668;37.858;2022-11-20T03:11:11;99903.25;;;-4.22;100.00
34674;BME280;20879;55.668;37.858;2022-11-20T03:13:42;99909.81;;;-4.25;100.00
34674;BME280;20879;55.668;37.858;2022-11-20T03:16:13;99877.44;;;-4.32;100.00
34674;BME280;20879;55.668;37.858;2022-11-20T03:18:43;99871.69;;;-4.48;100.00
34674;BME280;20879;55.668;37.858;2022-11-20T03:21:14;99892.25;;;-4.40;100.00
34674;BME280;20879;55.668;37.858;2022-11-20T03:23:44;99894.72;;;-4.42;100.00
34674;BME280;20879;55.668;37.858;2022-11-20T03:26:20;99912.13;;;-4.30;100.00
34674;BME280;20879;55.668;37.858;2022-11-20T03:28:52;99915.44;;;-4.31;100.00
34674;BME280;20879;55.668;37.858;2022-11-20T03:31:29;99907.84;;;-4.31;100.00
34674;BME280;20879;55.668;37.858;2022-11-20T03:33:59;99918.91;;;-4.29;100.00
34674;BME280;20879;55.668;37.858;2022-11-20T03:36:29;99932.63;;;-4.24;100.00
34674;BME280;20879;55.668;37.858;2022-11-20T03:38:59;99876.66;;;-4.49;100.00
34674;BME280;20879;55.668;37.858;2022-11-20T03:41:29;99924.97;;;-4.25;100.00
34674;BME280;20879;55.668;37.858;2022-11-20T03:44:04;99920.78;;;-4.25;100.00
34674;BME280;20879;55.668;37.858;2022-11-20T03:46:34;99908.06;;;-4.26;100.00
34674;BME280;20879;55.668;37.858;2022-11-20T03:49:13;99909.59;;;-4.30;100.00
34674;BME280;20879;55.668;37.858;2022-11-20T03:51:42;99915.28;;;-4.34;100.00
34674;BME280;20879;55.668;37.858;2022-11-20T03:54:16;99917.69;;;-4.37;100.00
34674;BME280;20879;55.668;37.858;2022-11-20T03:56:45;99919.41;;;-4.36;100.00
34674;BME280;20879;55.668;37.858;2022-11-20T03:59:17;99928.66;;;-4.36;100.00
34674;BME280;20879;55.668;37.858;2022-11-20T04:01:46;99930.47;;;-4.34;100.00
34674;BME280;20879;55.668;37.858;2022-11-20T04:04:17;99904.41;;;-4.51;100.00
34674;BME280;20879;55.668;37.858;2022-11-20T04:06:47;99943.38;;;-4.28;100.00
34674;BME280;20879;55.668;37.858;2022-11-20T04:09:16;99935.94;;;-4.25;100.00
34674;BME280;20879;55.668;37.858;2022-11-20T04:11:46;99924.75;;;-4.30;100.00
34674;BME280;20879;55.668;37.858;2022-11-20T04:14:18;99928.97;;;-4.30;100.00
34674;BME280;20879;55.668;37.858;2022-11-20T04:16:48;99945.28;;;-4.24;100.00
34674;BME280;20879;55.668;37.858;2022-11-20T04:19:17;99948.44;;;-4.28;100.00
34674;BME280;20879;55.668;37.858;2022-11-20T04:21:47;99951.38;;;-4.20;100.00
34674;BME280;20879;55.668;37.858;2022-11-20T04:24:16;99948.09;;;-4.17;100.00
34674;BME280;20879;55.668;37.858;2022-11-20T04:26:45;99945.41;;;-4.21;100.00
34674;BME280;20879;55.668;37.858;2022-11-20T04:29:16;99954.59;;;-4.23;100.00
34674;BME280;20879;55.668;37.858;2022-11-20T04:31:46;99948.03;;;-4.19;100.00
34674;BME280;20879;55.668;37.858;2022-11-20T04:34:15;99962.25;;;-4.21;100.00
34674;BME280;20879;55.668;37.858;2022-11-20T04:36:49;99970.56;;;-4.24;100.00
34674;BME280;20879;55.668;37.858;2022-11-20T04:39:18;99972.31;;;-4.23;100.00
34674;BME280;20879;55.668;37.858;2022-11-20T04:41:48;99965.34;;;-4.27;100.00
34674;BME280;20879;55.668;37.858;2022-11-20T04:44:39;99973.59;;;-4.31;100.00
34674;BME280;20879;55.668;37.858;2022-11-20T04:47:09;99991.50;;;-4.26;100.00
34674;BME280;20879;55.668;37.858;2022-11-20T04:49:44;99967.88;;;-4.45;100.00
34674;BME280;20879;55.668;37.858;2022-11-20T04:52:13;99986.22;;;-4.31;100.00
34674;BME280;20879;55.668;37.858;2022-11-20T04:54:42;99982.56;;;-4.37;100.00
34674;BME280;20879;55.668;37.858;2022-11-20T04:57:13;99995.41;;;-4.33;100.00
34674;BME280;20879;55.668;37.858;2022-11-20T04:59:49;100000.47;;;-4.33;100.00
34674;BME280;20879;55.668;37.858;2022-11-20T05:02:19;100012.47;;;-4.29;100.00
34674;BME280;20879;55.668;37.858;2022-11-20T05:04:49;99990.66;;;-4.27;100.00
34674;BME280;20879;55.668;37.858;2022-11-20T05:07:18;99999.84;;;-4.29;100.00
34674;BME280;20879;55.668;37.858;2022-11-20T05:09:52;99988.47;;;-4.37;100.00
34674;BME280;20879;55.668;37.858;2022-11-20T05:12:22;100001.41;;;-4.31;100.00
34674;BME280;20879;55.668;37.858;2022-11-20T05:14:53;99989.72;;;-4.45;100.00
34674;BME280;20879;55.668;37.858;2022-11-20T05:17:23;100013.56;;;-4.24;100.00
34674;BME280;20879;55.668;37.858;2022-11-20T05:19:52;100005.09;;;-4.24;100.00
34674;BME280;20879;55.668;37.858;2022-11-20T05:22:21;99980.59;;;-4.43;100.00
34674;BME280;20879;55.668;37.858;2022-11-20T05:24:50;100007.41;;;-4.29;100.00
34674;BME280;20879;55.668;37.858;2022-11-20T05:27:25;100025.91;;;-4.30;100.00
34674;BME280;20879;55.668;37.858;2022-11-20T05:29:56;100036.16;;;-4.27;100.00
34674;BME280;20879;55.668;37.858;2022-11-20T05:32:30;100036.22;;;-4.25;100.00
34674;BME280;20879;55.668;37.858;2022-11-20T05:34:59;100032.91;;;-4.24;100.00
34674;BME280;20879;55.668;37.858;2022-11-20T05:37:29;100034.41;;;-4.28;100.00
34674;BME280;20879;55.668;37.858;2022-11-20T05:39:58;100036.00;;;-4.30;100.00
34674;BME280;20879;55.668;37.858;2022-11-20T05:42:39;99962.69;;;-4.64;100.00
34674;BME280;20879;55.668;37.858;2022-11-20T05:45:12;100042.00;;;-4.28;100.00
34674;BME280;20879;55.668;37.858;2022-11-20T05:47:41;100042.88;;;-4.27;100.00
34674;BME280;20879;55.668;37.858;2022-11-20T05:50:10;100044.59;;;-4.26;100.00
34674;BME280;20879;55.668;37.858;2022-11-20T05:52:40;100053.78;;;-4.28;100.00
34674;BME280;20879;55.668;37.858;2022-11-20T05:55:14;100047.53;;;-4.18;100.00
34674;BME280;20879;55.668;37.858;2022-11-20T05:57:43;100062.28;;;-4.10;100.00
34674;BME280;20879;55.668;37.858;2022-11-20T06:00:15;100054.63;;;-4.11;100.00
34674;BME280;20879;55.668;37.858;2022-11-20T06:02:45;100059.97;;;-4.05;100.00
34674;BME280;20879;55.668;37.858;2022-11-20T06:05:14;100077.97;;;-3.99;100.00
34674;BME280;20879;55.668;37.858;2022-11-20T06:07:43;100068.00;;;-3.96;100.00
34674;BME280;20879;55.668;37.858;2022-11-20T06:10:12;100072.91;;;-3.99;100.00
34674;BME280;20879;55.668;37.858;2022-11-20T06:12:44;100078.28;;;-3.93;100.00
34674;BME280;20879;55.668;37.858;2022-11-20T06:15:15;100087.69;;;-3.90;100.00
34674;BME280;20879;55.668;37.858;2022-11-20T06:17:45;100074.31;;;-3.88;100.00
34674;BME280;20879;55.668;37.858;2022-11-20T06:20:14;100078.28;;;-3.93;100.00
34674;BME280;20879;55.668;37.858;2022-11-20T06:22:43;100084.28;;;-3.91;100.00
34674;BME280;20879;55.668;37.858;2022-11-20T06:25:12;100100.41;;;-3.89;100.00
34674;BME280;20879;55.668;37.858;2022-11-20T06:27:42;100083.97;;;-3.97;100.00
34674;BME280;20879;55.668;37.858;2022-11-20T06:30:12;100103.66;;;-3.91;100.00
34674;BME280;20879;55.668;37.858;2022-11-20T06:32:43;100112.97;;;-3.90;100.00
34674;BME280;20879;55.668;37.858;2022-11-20T06:35:13;100122.69;;;-3.81;100.00
34674;BME280;20879;55.668;37.858;2022-11-20T06:37:42;100123.13;;;-3.72;100.00
34674;BME280;20879;55.668;37.858;2022-11-20T06:40:12;100118.22;;;-3.69;100.00
34674;BME280;20879;55.668;37.858;2022-11-20T06:42:41;100123.28;;;-3.69;100.00
34674;BME280;20879;55.668;37.858;2022-11-20T06:45:10;100127.97;;;-3.59;100.00
34674;BME280;20879;55.668;37.858;2022-11-20T06:47:39;100108.41;;;-3.63;100.00
34674;BME280;20879;55.668;37.858;2022-11-20T06:52:46;100114.25;;;-3.64;100.00
34674;BME280;20879;55.668;37.858;2022-11-20T06:55:16;100106.81;;;-3.61;100.00
34674;BME280;20879;55.668;37.858;2022-11-20T06:57:51;100100.13;;;-3.59;100.00
34674;BME280;20879;55.668;37.858;2022-11-20T07:00:22;100110.69;;;-3.67;100.00
34674;BME280;20879;55.668;37.858;2022-11-20T07:02:51;100101.16;;;-3.73;100.00
34674;BME280;20879;55.668;37.858;2022-11-20T07:05:22;100104.47;;;-3.74;100.00
34674;BME280;20879;55.668;37.858;2022-11-20T07:07:51;100104.78;;;-3.68;100.00
34674;BME280;20879;55.668;37.858;2022-11-20T07:10:20;100109.84;;;-3.68;100.00
34674;BME280;20879;55.668;37.858;2022-11-20T07:12:50;100110.94;;;-3.63;100.00
34674;BME280;20879;55.668;37.858;2022-11-20T07:15:21;100089.16;;;-3.77;100.00
34674;BME280;20879;55.668;37.858;2022-11-20T07:17:50;100113.47;;;-3.63;100.00
34674;BME280;20879;55.668;37.858;2022-11-20T07:20:20;100123.03;;;-3.57;100.00
34674;BME280;20879;55.668;37.858;2022-11-20T07:22:55;100111.88;;;-3.61;100.00
34674;BME280;20879;55.668;37.858;2022-11-20T07:25:25;100081.78;;;-3.73;100.00
34674;BME280;20879;55.668;37.858;2022-11-20T07:27:57;100124.78;;;-3.38;100.00
34674;BME280;20879;55.668;37.858;2022-11-20T07:30:27;100116.63;;;-3.31;100.00
34674;BME280;20879;55.668;37.858;2022-11-20T07:33:02;100101.22;;;-3.36;100.00
34674;BME280;20879;55.668;37.858;2022-11-20T07:35:31;100121.13;;;-3.25;100.00
34674;BME280;20879;55.668;37.858;2022-11-20T07:38:03;100110.28;;;-3.23;100.00
34674;BME280;20879;55.668;37.858;2022-11-20T07:40:37;100127.50;;;-3.16;100.00
34674;BME280;20879;55.668;37.858;2022-11-20T07:43:06;100116.94;;;-3.25;100.00
34674;BME280;20879;55.668;37.858;2022-11-20T07:45:36;100126.31;;;-3.22;100.00
34674;BME280;20879;55.668;37.858;2022-11-20T07:48:10;100111.56;;;-3.31;100.00
34674;BME280;20879;55.668;37.858;2022-11-20T07:50:39;100117.97;;;-3.39;100.00
34674;BME280;20879;55.668;37.858;2022-11-20T07:53:10;100131.19;;;-3.27;100.00
34674;BME280;20879;55.668;37.858;2022-11-20T07:55:45;100138.22;;;-3.21;100.00
34674;BME280;20879;55.668;37.858;2022-11-20T07:58:14;100121.13;;;-3.25;100.00
34674;BME280;20879;55.668;37.858;2022-11-20T08:00:43;100138.41;;;-3.17;100.00
34674;BME280;20879;55.668;37.858;2022-11-20T08:03:13;100150.78;;;-3.05;100.00
34674;BME280;20879;55.668;37.858;2022-11-20T08:05:50;100141.69;;;-3.01;100.00
34674;BME280;20879;55.668;37.858;2022-11-20T08:08:22;100130.66;;;-3.02;100.00
34674;BME280;20879;55.668;37.858;2022-11-20T08:10:51;100151.66;;;-3.04;100.00
34674;BME280;20879;55.668;37.858;2022-11-20T08:13:41;100156.59;;;-3.07;100.00
34674;BME280;20879;55.668;37.858;2022-11-20T08:16:23;100166.72;;;-3.07;100.00
34674;BME280;20879;55.668;37.858;2022-11-20T08:18:52;100153.09;;;-3.09;100.00
34674;BME280;20879;55.668;37.858;2022-11-20T08:21:27;100148.84;;;-3.10;100.00
34674;BME280;20879;55.668;37.858;2022-11-20T08:24:07;100155.72;;;-3.08;100.00
34674;BME280;20879;55.668;37.858;2022-11-20T08:26:37;100154.13;;;-3.06;100.00
34674;BME280;20879;55.668;37.858;2022-11-20T08:29:07;100161.00;;;-3.03;100.00
34674;BME280;20879;55.668;37.858;2022-11-20T08:31:36;100160.63;;;-2.93;100.00
34674;BME280;20879;55.668;37.858;2022-11-20T08:34:05;100166.13;;;-2.84;100.00
34674;BME280;20879;55.668;37.858;2022-11-20T08:36:36;100156.78;;;-2.85;100.00
34674;BME280;20879;55.668;37.858;2022-11-20T08:39:07;100157.69;;;-2.83;100.00
34674;BME280;20879;55.668;37.858;2022-11-20T08:41:36;100159.72;;;-2.75;100.00
34674;BME280;20879;55.668;37.858;2022-11-20T08:44:07;100150.91;;;-2.84;100.00
34674;BME280;20879;55.668;37.858;2022-11-20T08:46:38;100161.31;;;-2.77;100.00
34674;BME280;20879;55.668;37.858;2022-11-20T08:49:08;100152.81;;;-2.79;100.00
34674;BME280;20879;55.668;37.858;2022-11-20T08:51:39;100170.22;;;-2.68;100.00
34674;BME280;20879;55.668;37.858;2022-11-20T08:54:10;100180.25;;;-2.51;100.00
34674;BME280;20879;55.668;37.858;2022-11-20T08:56:40;100174.47;;;-2.49;100.00
34674;BME280;20879;55.668;37.858;2022-11-20T08:59:09;100189.50;;;-2.34;100.00
34674;BME280;20879;55.668;37.858;2022-11-20T09:01:58;100183.38;;;-2.37;100.00
34674;BME280;20879;55.668;37.858;2022-11-20T09:04:28;100210.19;;;-2.05;100.00
34674;BME280;20879;55.668;37.858;2022-11-20T09:07:04;100212.78;;;-1.84;100.00
34674;BME280;20879;55.668;37.858;2022-11-20T09:09:40;100208.22;;;-1.71;100.00
34674;BME280;20879;55.668;37.858;2022-11-20T09:12:15;100210.63;;;-1.55;100.00
34674;BME280;20879;55.668;37.858;2022-11-20T09:14:44;100216.31;;;-1.39;100.00
34674;BME280;20879;55.668;37.858;2022-11-20T09:17:20;100212.41;;;-1.31;100.00
34674;BME280;20879;55.668;37.858;2022-11-20T09:19:50;100225.47;;;-1.22;100.00
34674;BME280;20879;55.668;37.858;2022-11-20T09:22:19;100227.41;;;-1.16;100.00
34674;BME280;20879;55.668;37.858;2022-11-20T09:24:50;100210.13;;;-1.25;100.00
34674;BME280;20879;55.668;37.858;2022-11-20T09:27:19;100200.44;;;-1.34;100.00
34674;BME280;20879;55.668;37.858;2022-11-20T09:29:49;100236.44;;;-1.23;100.00
34674;BME280;20879;55.668;37.858;2022-11-20T09:32:18;100240.13;;;-1.16;100.00
34674;BME280;20879;55.668;37.858;2022-11-20T09:34:48;100232.19;;;-1.24;100.00
34674;BME280;20879;55.668;37.858;2022-11-20T09:37:17;100231.06;;;-1.31;100.00
34674;BME280;20879;55.668;37.858;2022-11-20T09:39:46;100249.47;;;-1.15;100.00
34674;BME280;20879;55.668;37.858;2022-11-20T09:42:37;100255.47;;;-1.13;100.00
34674;BME280;20879;55.668;37.858;2022-11-20T09:45:16;100222.75;;;-1.27;100.00
34674;BME280;20879;55.668;37.858;2022-11-20T09:48:04;100256.06;;;-0.99;100.00
34674;BME280;20879;55.668;37.858;2022-11-20T09:50:43;100246.69;;;-1.00;100.00
34674;BME280;20879;55.668;37.858;2022-11-20T09:53:21;100252.25;;;-0.88;100.00
34674;BME280;20879;55.668;37.858;2022-11-20T09:55:52;100248.97;;;-0.85;100.00
34674;BME280;20879;55.668;37.858;2022-11-20T09:58:37;100249.81;;;-0.85;100.00
34674;BME280;20879;55.668;37.858;2022-11-20T10:01:11;100251.38;;;-0.89;100.00
34674;BME280;20879;55.668;37.858;2022-11-20T10:03:48;100262.22;;;-0.93;100.00
34674;BME280;20879;55.668;37.858;2022-11-20T10:06:23;100249.53;;;-0.93;100.00
34674;BME280;20879;55.668;37.858;2022-11-20T10:09:01;100244.94;;;-1.01;100.00
34674;BME280;20879;55.668;37.858;2022-11-20T10:11:42;100262.19;;;-0.94;100.00
34674;BME280;20879;55.668;37.858;2022-11-20T10:14:28;100257.09;;;-0.94;100.00
34674;BME280;20879;55.668;37.858;2022-11-20T10:17:05;100262.19;;;-0.94;100.00
34674;BME280;20879;55.668;37.858;2022-11-20T10:19:51;100270.59;;;-0.95;100.00
34674;BME280;20879;55.668;37.858;2022-11-20T10:22:37;100244.59;;;-1.11;100.00
34674;BME280;20879;55.668;37.858;2022-11-20T10:25:18;100280.22;;;-0.88;100.00
34674;BME280;20879;55.668;37.858;2022-11-20T10:28:14;100246.63;;;-1.02;100.00
34674;BME280;20879;55.668;37.858;2022-11-20T10:30:52;100276.06;;;-0.86;100.00
34674;BME280;20879;55.668;37.858;2022-11-20T10:33:26;100261.13;;;-0.99;100.00
34674;BME280;20879;55.668;37.858;2022-11-20T10:36:20;100270.88;;;-0.89;100.00
34674;BME280;20879;55.668;37.858;2022-11-20T10:38:55;100260.38;;;-0.97;100.00
34674;BME280;20879;55.668;37.858;2022-11-20T10:41:30;100276.00;;;-0.88;100.00
34674;BME280;20879;55.668;37.858;2022-11-20T10:44:05;100260.31;;;-0.98;100.00
34674;BME280;20879;55.668;37.858;2022-11-20T10:46:43;100208.69;;;-1.39;100.00
34674;BME280;20879;55.668;37.858;2022-11-20T10:49:17;100283.19;;;-0.98;100.00
34674;BME280;20879;55.668;37.858;2022-11-20T10:52:04;100290.69;;;-1.01;100.00
34674;BME280;20879;55.668;37.858;2022-11-20T10:54:42;100288.75;;;-1.07;100.00
34674;BME280;20879;55.668;37.858;2022-11-20T10:57:23;100292.88;;;-1.11;100.00
34674;BME280;20879;55.668;37.858;2022-11-20T11:00:02;100299.56;;;-1.13;100.00
34674;BME280;20879;55.668;37.858;2022-11-20T11:02:39;100278.72;;;-1.25;100.00
34674;BME280;20879;55.668;37.858;2022-11-20T11:05:17;100294.41;;;-1.14;100.00
34674;BME280;20879;55.668;37.858;2022-11-20T11:07:51;100299.38;;;-1.17;100.00
34674;BME280;20879;55.668;37.858;2022-11-20T11:10:32;100303.47;;;-1.21;100.00
34674;BME280;20879;55.668;37.858;2022-11-20T11:13:05;100305.34;;;-1.17;100.00
34674;BME280;20879;55.668;37.858;2022-11-20T11:15:38;100300.06;;;-1.21;100.00
34674;BME280;20879;55.668;37.858;2022-11-20T11:18:11;100265.25;;;-1.44;100.00
34674;BME280;20879;55.668;37.858;2022-11-20T11:20:49;100306.13;;;-1.18;100.00
34674;BME280;20879;55.668;37.858;2022-11-20T11:23:34;100310.53;;;-1.14;100.00
34674;BME280;20879;55.668;37.858;2022-11-20T11:26:06;100312.41;;;-1.10;100.00
34674;BME280;20879;55.668;37.858;2022-11-20T11:28:36;100299.63;;;-1.11;100.00
34674;BME280;20879;55.668;37.858;2022-11-20T11:31:05;100304.22;;;-1.02;100.00
34674;BME280;20879;55.668;37.858;2022-11-20T11:33:37;100281.50;;;-1.19;100.00
34674;BME280;20879;55.668;37.858;2022-11-20T11:36:17;100302.13;;;-1.13;100.00
34674;BME280;20879;55.668;37.858;2022-11-20T11:38:51;100289.44;;;-1.32;100.00
34674;BME280;20879;55.668;37.858;2022-11-20T11:41:30;100295.13;;;-1.38;100.00
34674;BME280;20879;55.668;37.858;2022-11-20T11:44:15;100305.47;;;-1.33;100.00
34674;BME280;20879;55.668;37.858;2022-11-20T11:46:59;100305.88;;;-1.24;100.00
34674;BME280;20879;55.668;37.858;2022-11-20T11:49:32;100266.88;;;-1.46;100.00
34674;BME280;20879;55.668;37.858;2022-11-20T11:52:05;100303.34;;;-1.24;100.00
34674;BME280;20879;55.668;37.858;2022-11-20T11:54:47;100310.00;;;-1.26;100.00
34674;BME280;20879;55.668;37.858;2022-11-20T11:57:29;100309.88;;;-1.29;100.00
34674;BME280;20879;55.668;37.858;2022-11-20T12:00:09;100314.84;;;-1.32;100.00
34674;BME280;20879;55.668;37.858;2022-11-20T12:02:48;100312.22;;;-1.34;100.00
34674;BME280;20879;55.668;37.858;2022-11-20T12:05:24;100293.00;;;-1.48;100.00
34674;BME280;20879;55.668;37.858;2022-11-20T12:08:03;100310.31;;;-1.39;100.00
34674;BME280;20879;55.668;37.858;2022-11-20T12:10:43;100312.53;;;-1.47;100.00
34674;BME280;20879;55.668;37.858;2022-11-20T12:13:44;100308.78;;;-1.55;100.00
34674;BME280;20879;55.668;37.858;2022-11-20T12:16:16;100310.31;;;-1.59;100.00
34674;BME280;20879;55.668;37.858;2022-11-20T12:18:48;100318.75;;;-1.60;100.00
34674;BME280;20879;55.668;37.858;2022-11-20T12:21:28;100314.38;;;-1.63;100.00
34674;BME280;20879;55.668;37.858;2022-11-20T12:26:59;100295.09;;;-1.79;100.00
34674;BME280;20879;55.668;37.858;2022-11-20T12:29:43;100318.28;;;-1.71;100.00
34674;BME280;20879;55.668;37.858;2022-11-20T12:32:38;100306.19;;;-1.77;100.00
34674;BME280;20879;55.668;37.858;2022-11-20T12:35:25;100306.13;;;-1.78;100.00
34674;BME280;20879;55.668;37.858;2022-11-20T12:38:27;100308.25;;;-1.87;100.00
34674;BME280;20879;55.668;37.858;2022-11-20T12:41:11;100298.34;;;-2.01;100.00
34674;BME280;20879;55.668;37.858;2022-11-20T12:44:17;100313.09;;;-1.92;100.00
34674;BME280;20879;55.668;37.858;2022-11-20T12:47:17;100323.31;;;-1.90;100.00
34674;BME280;20879;55.668;37.858;2022-11-20T12:55:35;100321.00;;;-2.23;100.00
34674;BME280;20879;55.668;37.858;2022-11-20T12:58:12;100329.19;;;-2.29;100.00
34674;BME280;20879;55.668;37.858;2022-11-20T13:00:56;100334.56;;;-2.23;100.00
34674;BME280;20879;55.668;37.858;2022-11-20T13:03:39;100330.06;;;-2.11;100.00
34674;BME280;20879;55.668;37.858;2022-11-20T13:06:14;100336.06;;;-2.08;100.00
34674;BME280;20879;55.668;37.858;2022-11-20T13:08:49;100339.38;;;-2.09;100.00
34674;BME280;20879;55.668;37.858;2022-11-20T13:11:31;100338.78;;;-2.23;100.00
34674;BME280;20879;55.668;37.858;2022-11-20T13:14:11;100337.59;;;-2.30;100.00
34674;BME280;20879;55.668;37.858;2022-11-20T13:16:48;100344.00;;;-2.38;100.00